Portada
METAR-TAF:

METAR-TAF

Aeropuertos :

Aeropuerto de Matsuyama

Matsuyama, Japón

latitud: 33-49N, longitud: 132-42E, altitud: 4 m

Observación

El informe se hizo hace 25 minutos, a las 12:00 UTC
Viento 13 kt del norte-noroeste
Temperatura 4°C
Humedad 48%
Presión 1024 hPa
Visibilidad 10 km o más
Escasas nubes a una altura de 3000 ft
Nubes dispersas a una altura de 5000 ft

METAR: RJOM 171200Z 33013KT 9999 FEW030 SCT050 04/M06 Q1024

Hora: 21:25 (12:25 UTC)

Pronóstico

El informe se hizo hace 1 hora y 18 minutos, a las 11:07 UTC
Pronóstico válido del 17 a las 12 UTC al 18 a las 18 UTC
Viento 10 kt del noroeste
Visibilidad 10 km o más
Escasas nubes a una altura de 2500 ft
Evolucionando progresivamente
del 18 a las 03 UTC al 18 a las 06 UTC
Viento 24 kt del oeste
Temporalmente
del 18 a las 06 UTC al 18 a las 15 UTC
Viento 26 kt del oeste con ráfagas de 38 kt

TAF: RJOM 171107Z 1712/1818 31010KT 9999 FEW025 BECMG 1803/1806 27024KT TEMPO 1806/1815 27026G38KT

Observaciones y pronósticos meteorológicos de más de 4000 aeropuertos (mensajes METAR y TAF).

Los puntos amarillos y rojos representan las estaciones disponibles.

Ponga el ratón en el punto deseado para ver el nombre de la estación.

Haga clic para ver las observaciones y los pronósticos meteorológicos.

Para cambiar el mapa : haga clic en los botones verdes con una cruz de color negro para hacer un zoom, en el botón verde con un guión para alejar o en las flechas verdes para mapas adyacentes.


METAR-TAF: